Time;durP1;ratioP1;P1;durP2;ratioP2;P2;SDS_P1;SDS_P2;PMS_P1;PMS_P2;Temp;Humidity;BMP_temperature;BMP_pressure;BME280_temperature;BME280_humidity;BME280_pressure;Samples;Min_cycle;Max_cycle;Signal;HPM_P1;HPM_P2
2021/06/07 00:00:50;;;;;;;;;3.50;3.50;;;;;24.70;42.94;101988.63;5017256;28;45982;-52
2021/06/07 00:03:15;;;;;;;;;4.50;4.50;;;;;24.70;43.13;101990.53;5017371;28;45357;-53
2021/06/07 00:05:41;;;;;;;;;4.00;4.00;;;;;24.70;43.12;101996.84;5017357;28;45454;-52
2021/06/07 00:08:07;;;;;;;;;5.00;4.25;;;;;24.69;43.34;101991.50;5017175;28;45333;-49
2021/06/07 00:10:33;;;;;;;;;4.75;4.75;;;;;24.68;43.15;101985.13;5015298;28;46335;-53
2021/06/07 00:13:00;;;;;;;;;4.75;3.25;;;;;24.67;43.24;101997.19;5016476;28;45638;-52
2021/06/07 00:15:28;;;;;;;;;3.00;3.00;;;;;24.67;43.18;101988.06;5017272;28;45396;-51
2021/06/07 00:17:54;;;;;;;;;4.50;4.50;;;;;24.65;43.39;101996.47;5017265;28;45471;-54
2021/06/07 00:20:40;;;;;;;;;3.50;3.50;;;;;24.65;43.38;101980.00;5016950;28;45322;-51
2021/06/07 00:23:09;;;;;;;;;3.75;3.75;;;;;24.64;43.62;101977.41;5015479;28;45424;-49
2021/06/07 00:25:35;;;;;;;;;3.75;3.75;;;;;24.63;43.53;101975.69;5017142;28;45228;-51
2021/06/07 00:28:01;;;;;;;;;3.50;3.50;;;;;24.63;43.69;101975.69;5017192;28;45243;-53
2021/06/07 00:30:26;;;;;;;;;6.00;3.00;;;;;24.61;43.27;101977.75;5016827;28;45387;-53
2021/06/07 00:32:52;;;;;;;;;4.00;4.00;;;;;24.60;43.52;101981.50;5016604;28;45290;-51
2021/06/07 00:35:23;;;;;;;;;4.50;4.50;;;;;24.60;43.37;101973.28;5016718;28;45633;-51
2021/06/07 00:37:49;;;;;;;;;4.50;3.75;;;;;24.58;43.50;101967.94;5016833;28;45380;-53
2021/06/07 00:40:16;;;;;;;;;4.50;4.50;;;;;24.57;43.67;101968.94;5016710;28;45305;-49
2021/06/07 00:42:42;;;;;;;;;3.00;3.00;;;;;24.55;43.45;101979.22;5016720;28;45342;-52
2021/06/07 00:45:13;;;;;;;;;2.50;2.50;;;;;24.55;43.98;101981.97;5016909;28;45305;-50
2021/06/07 00:47:39;;;;;;;;;5.00;3.00;;;;;24.53;43.78;101973.91;5015401;28;45357;-52
2021/06/07 00:50:12;;;;;;;;;4.50;4.50;;;;;24.53;43.63;101976.66;5016654;28;45492;-50
2021/06/07 00:52:59;;;;;;;;;3.25;3.25;;;;;24.51;43.90;101975.97;5016283;28;45394;-52
2021/06/07 00:55:25;;;;;;;;;4.00;4.00;;;;;24.50;43.73;101981.63;5016652;28;45343;-53
2021/06/07 00:57:52;;;;;;;;;4.00;4.00;;;;;24.49;43.59;101977.16;5016544;28;45354;-54
2021/06/07 01:00:18;;;;;;;;;4.00;3.75;;;;;24.49;43.74;101977.16;5016313;28;45305;-50
2021/06/07 01:02:44;;;;;;;;;3.50;2.50;;;;;24.48;43.92;101978.19;5016146;28;45392;-52
2021/06/07 01:05:10;;;;;;;;;4.50;3.75;;;;;24.47;43.81;101970.97;5016491;28;45491;-51
2021/06/07 01:07:36;;;;;;;;;3.50;3.50;;;;;24.47;44.06;101979.19;5015685;28;45431;-51
2021/06/07 01:10:01;;;;;;;;;4.50;4.50;;;;;24.43;43.88;101975.03;5001491;28;45953;-51
2021/06/07 01:12:27;;;;;;;;;4.50;3.50;;;;;24.42;43.89;101971.44;5008549;28;45271;-53
2021/06/07 01:14:53;;;;;;;;;3.50;3.00;;;;;24.43;43.95;101975.91;5015088;28;45253;-54
2021/06/07 01:17:18;;;;;;;;;3.00;3.00;;;;;24.43;43.86;101966.81;5016521;28;45388;-50
2021/06/07 01:19:44;;;;;;;;;3.25;2.50;;;;;24.43;44.13;101977.78;5016027;28;45703;-52
2021/06/07 01:22:09;;;;;;;;;5.00;3.75;;;;;24.40;44.16;101968.00;5015450;28;45213;-51
2021/06/07 01:24:35;;;;;;;;;4.50;4.50;;;;;24.40;44.23;101978.97;5016103;28;45265;-54
2021/06/07 01:27:00;;;;;;;;;4.50;3.25;;;;;24.37;44.02;101969.19;5016247;28;45421;-51
2021/06/07 01:29:26;;;;;;;;;5.00;5.00;;;;;24.37;44.21;101971.94;5016189;28;45395;-48
2021/06/07 01:31:51;;;;;;;;;3.00;3.00;;;;;24.36;44.11;101975.72;5016117;28;45190;-52
2021/06/07 01:34:17;;;;;;;;;4.75;4.75;;;;;24.35;44.39;101976.72;5015995;28;45339;-54
2021/06/07 01:36:43;;;;;;;;;5.00;3.50;;;;;24.35;44.13;101973.09;5014617;28;45520;-50
2021/06/07 01:39:08;;;;;;;;;4.00;4.00;;;;;24.34;44.42;101974.13;5015952;28;46354;-53
2021/06/07 01:41:33;;;;;;;;;4.00;4.00;;;;;24.33;44.54;101973.28;5015930;28;45218;-52
2021/06/07 01:43:59;;;;;;;;;4.25;4.25;;;;;24.32;44.35;101979.78;5016196;28;45443;-48
2021/06/07 01:46:24;;;;;;;;;5.75;3.25;;;;;24.31;44.37;101972.56;5015837;28;45341;-51
2021/06/07 01:48:50;;;;;;;;;5.00;3.00;;;;;24.31;44.48;101971.72;5015855;28;46050;-48
2021/06/07 01:51:15;;;;;;;;;4.00;4.00;;;;;24.29;44.56;101965.53;5015651;28;45421;-49
2021/06/07 01:53:43;;;;;;;;;4.25;4.00;;;;;24.29;44.50;101963.63;5014646;28;45392;-48
2021/06/07 01:56:10;;;;;;;;;3.25;3.25;;;;;24.28;44.45;101961.06;5015963;28;45490;-50
2021/06/07 01:58:37;;;;;;;;;3.75;3.75;;;;;24.27;44.60;101959.34;5003356;28;45440;-51
2021/06/07 02:01:15;;;;;;;;;4.25;4.25;;;;;24.26;44.78;101963.94;4995958;28;45801;-53
2021/06/07 02:03:41;;;;;;;;;3.25;3.25;;;;;24.25;44.64;101960.34;4994746;28;45344;-54
2021/06/07 02:06:09;;;;;;;;;3.25;3.00;;;;;24.24;44.70;101957.78;4995847;28;45368;-56
2021/06/07 02:08:35;;;;;;;;;3.00;2.75;;;;;24.24;44.90;101961.38;4997098;28;46314;-50
2021/06/07 02:11:04;;;;;;;;;4.50;3.25;;;;;24.23;44.65;101956.06;5013822;28;45445;-52
2021/06/07 02:13:29;;;;;;;;;4.00;4.00;;;;;24.22;44.67;101968.91;5015883;28;45482;-52
2021/06/07 02:16:05;;;;;;;;;3.00;3.00;;;;;24.22;44.85;101965.31;5015510;28;45494;-50
2021/06/07 02:18:35;;;;;;;;;2.25;2.25;;;;;24.20;44.84;101965.44;5015225;28;46144;-47
2021/06/07 02:21:01;;;;;;;;;4.00;3.00;;;;;24.20;44.97;101964.59;5016106;28;45768;-52
2021/06/07 02:23:27;;;;;;;;;2.00;2.00;;;;;24.18;44.86;101963.91;5017708;28;45403;-53
2021/06/07 02:25:52;;;;;;;;;3.00;3.00;;;;;24.14;44.93;101948.78;5018927;28;45468;-56
2021/06/07 02:28:19;;;;;;;;;3.50;3.50;;;;;24.17;45.04;101957.56;5018845;28;45388;-53
2021/06/07 02:30:46;;;;;;;;;5.00;3.25;;;;;24.14;44.91;101960.63;5018878;28;45373;-52
2021/06/07 02:33:13;;;;;;;;;4.50;4.00;;;;;24.14;45.15;101959.75;5018933;28;45348;-54
2021/06/07 02:35:39;;;;;;;;;5.00;5.00;;;;;24.13;45.06;101963.50;5018592;28;45362;-53
2021/06/07 02:38:04;;;;;;;;;3.75;3.75;;;;;24.13;45.10;101963.50;5018660;28;45985;-48
2021/06/07 02:40:32;;;;;;;;;4.75;4.00;;;;;24.10;44.83;101960.09;5018566;28;45195;-51
2021/06/07 02:42:59;;;;;;;;;4.00;3.75;;;;;24.08;45.17;101956.66;5017369;28;45231;-53
2021/06/07 02:45:27;;;;;;;;;3.00;3.00;;;;;24.08;45.33;101953.03;5018870;28;45344;-50
2021/06/07 02:47:55;;;;;;;;;2.75;2.75;;;;;24.07;45.05;101960.41;5018229;28;45541;-48
2021/06/07 02:50:23;;;;;;;;;5.00;4.00;;;;;24.07;45.41;101954.03;5018470;28;45254;-50
2021/06/07 02:52:49;;;;;;;;;3.50;3.50;;;;;24.05;45.52;101953.34;5018701;28;45329;-50
2021/06/07 02:55:29;;;;;;;;;3.75;3.75;;;;;24.05;45.24;101956.06;5018572;28;45399;-49
2021/06/07 02:57:56;;;;;;;;;2.50;2.50;;;;;24.02;45.36;101959.16;5011784;28;45826;-51
2021/06/07 03:00:31;;;;;;;;;3.50;3.00;;;;;24.03;45.29;101963.63;5030022;28;45476;-52
2021/06/07 03:02:58;;;;;;;;;2.00;2.00;;;;;24.01;45.31;101966.50;4997030;28;45460;-50
2021/06/07 03:05:25;;;;;;;;;3.75;3.75;;;;;24.00;45.37;101967.53;4998649;28;45361;-53
2021/06/07 03:07:50;;;;;;;;;3.25;3.25;;;;;24.00;45.65;101963.94;4998298;28;45917;-50
2021/06/07 03:10:16;;;;;;;;;4.00;3.25;;;;;24.00;45.69;101972.19;5014570;28;45300;-48
2021/06/07 03:12:42;;;;;;;;;4.00;4.00;;;;;23.99;45.70;101962.22;5018424;28;45326;-53
2021/06/07 03:15:10;;;;;;;;;4.25;3.00;;;;;23.98;45.71;101969.56;5018194;28;45404;-53
2021/06/07 03:17:35;;;;;;;;;3.00;3.00;;;;;23.97;45.74;101961.50;5017913;28;45327;-51
2021/06/07 03:20:04;;;;;;;;;4.25;3.25;;;;;23.97;45.67;101973.34;5018122;28;45242;-53
2021/06/07 03:22:30;;;;;;;;;5.00;3.00;;;;;23.95;45.88;101967.97;5017001;28;46107;-49
2021/06/07 03:24:55;;;;;;;;;2.50;2.50;;;;;23.94;45.90;101970.91;5018064;28;45424;-51
2021/06/07 03:27:21;;;;;;;;;3.50;3.50;;;;;23.93;45.73;101967.28;5017968;28;45364;-52
2021/06/07 03:29:47;;;;;;;;;2.00;2.00;;;;;23.93;45.90;101966.44;5017936;28;45517;-54
2021/06/07 03:32:13;;;;;;;;;2.75;2.75;;;;;23.92;45.90;101960.06;5017582;28;45423;-53
2021/06/07 03:34:39;;;;;;;;;4.00;3.00;;;;;23.92;45.90;101961.97;5018011;28;45426;-54
2021/06/07 03:37:05;;;;;;;;;3.00;3.00;;;;;23.91;46.00;101958.34;5016367;28;45519;-51
2021/06/07 03:39:31;;;;;;;;;3.50;3.25;;;;;23.90;46.19;101961.25;5016390;28;45372;-51
2021/06/07 03:41:57;;;;;;;;;2.75;2.75;;;;;23.89;46.04;101960.38;5017917;28;45217;-50
2021/06/07 03:44:23;;;;;;;;;4.00;3.25;;;;;23.88;45.97;101955.94;5017849;28;45242;-54
2021/06/07 03:46:48;;;;;;;;;3.00;3.00;;;;;23.88;46.22;101960.53;5017473;28;45303;-54
2021/06/07 03:49:14;;;;;;;;;4.00;4.00;;;;;23.87;46.10;101953.34;5017670;28;45317;-52
2021/06/07 03:51:40;;;;;;;;;3.00;3.00;;;;;23.86;46.08;101957.97;5017350;28;45398;-52
2021/06/07 03:54:05;;;;;;;;;2.50;2.50;;;;;23.86;46.27;101963.47;5017684;28;45386;-55
2021/06/07 03:56:31;;;;;;;;;4.75;3.00;;;;;23.85;46.23;101966.34;5017476;28;45835;-54
2021/06/07 03:58:56;;;;;;;;;1.75;1.75;;;;;23.84;45.98;101964.63;5017021;28;45365;-52
2021/06/07 04:01:22;;;;;;;;;3.00;3.00;;;;;23.84;46.43;101959.13;5017431;28;45324;-51
2021/06/07 04:03:47;;;;;;;;;1.75;1.75;;;;;23.83;46.10;101958.28;5017410;28;45312;-53
2021/06/07 04:06:12;;;;;;;;;2.25;2.25;;;;;23.82;46.33;101953.81;5017028;28;45379;-51
2021/06/07 04:08:38;;;;;;;;;3.00;3.00;;;;;23.82;46.30;101953.81;5016951;28;45372;-52
2021/06/07 04:11:04;;;;;;;;;2.00;2.00;;;;;23.82;46.28;101953.81;5017449;28;45467;-52
2021/06/07 04:13:30;;;;;;;;;4.00;2.50;;;;;23.82;46.29;101950.22;5017457;28;45477;-56
2021/06/07 04:15:55;;;;;;;;;3.25;3.00;;;;;23.80;46.18;101951.25;5016708;28;46072;-50
2021/06/07 04:18:20;;;;;;;;;3.50;3.50;;;;;23.79;46.44;101944.03;5015864;28;45382;-52
2021/06/07 04:20:46;;;;;;;;;3.00;3.00;;;;;23.82;46.65;101958.47;5017387;28;45226;-54
2021/06/07 04:23:12;;;;;;;;;2.75;2.75;;;;;23.80;46.40;101953.97;5017174;28;45218;-50
2021/06/07 04:25:37;;;;;;;;;2.00;2.00;;;;;23.79;46.42;101952.25;5017073;28;45935;-50
2021/06/07 04:28:04;;;;;;;;;3.75;2.50;;;;;23.78;46.34;101952.41;5016912;28;45440;-54
2021/06/07 04:30:30;;;;;;;;;2.25;2.25;;;;;23.79;46.45;101960.50;5016845;28;45368;-53
2021/06/07 04:32:58;;;;;;;;;3.00;3.00;;;;;23.79;46.41;101962.34;5017111;28;45242;-54
2021/06/07 04:35:24;;;;;;;;;1.75;1.75;;;;;23.79;46.40;101956.88;5016845;28;46008;-51
2021/06/07 04:37:51;;;;;;;;;2.75;2.75;;;;;23.78;46.28;101958.75;5016921;28;45639;-52
2021/06/07 04:40:20;;;;;;;;;3.25;3.25;;;;;23.77;46.46;101954.28;5015614;28;45423;-51
2021/06/07 04:42:46;;;;;;;;;4.25;2.00;;;;;23.78;46.42;101958.75;5015591;28;45380;-52
2021/06/07 04:45:12;;;;;;;;;3.00;3.00;;;;;23.78;46.41;101960.63;5016516;28;45902;-53
2021/06/07 04:47:38;;;;;;;;;2.25;2.25;;;;;23.77;46.52;101968.00;5015396;28;45422;-52
2021/06/07 04:50:06;;;;;;;;;3.50;3.50;;;;;23.76;46.37;101957.19;5016874;28;45309;-50
2021/06/07 04:52:32;;;;;;;;;2.00;2.00;;;;;23.77;46.38;101964.38;5016447;28;45427;-50
2021/06/07 04:54:57;;;;;;;;;3.75;3.00;;;;;23.76;46.26;101960.78;5016475;28;45462;-51
2021/06/07 04:57:23;;;;;;;;;3.00;2.00;;;;;23.77;46.37;101964.38;5014648;28;45313;-51
2021/06/07 04:59:48;;;;;;;;;1.75;1.75;;;;;23.76;46.31;101968.16;5006039;28;45233;-50
2021/06/07 05:02:14;;;;;;;;;2.00;2.00;;;;;23.76;46.59;101962.66;5016251;28;45466;-51
2021/06/07 05:04:39;;;;;;;;;2.00;2.00;;;;;23.76;46.53;101962.66;5016408;28;46148;-52
2021/06/07 05:07:05;;;;;;;;;2.25;2.25;;;;;23.75;46.38;101960.97;5015084;28;45344;-55
2021/06/07 05:09:30;;;;;;;;;2.50;2.50;;;;;23.76;46.60;101962.66;5016387;28;45606;-51
2021/06/07 05:11:56;;;;;;;;;4.00;3.75;;;;;23.73;46.60;101960.25;5016404;28;45313;-49
2021/06/07 05:14:21;;;;;;;;;3.00;3.00;;;;;23.75;46.39;101958.22;5016030;28;45321;-53
2021/06/07 05:16:47;;;;;;;;;4.50;4.00;;;;;23.76;46.75;101962.66;5016252;28;45294;-49
2021/06/07 05:19:12;;;;;;;;;1.50;1.50;;;;;23.75;46.46;101960.97;5016348;28;45385;-48
2021/06/07 05:21:38;;;;;;;;;3.25;2.75;;;;;23.74;46.57;101965.56;5016361;28;45308;-50
2021/06/07 05:24:04;;;;;;;;;3.50;2.00;;;;;23.73;46.54;101963.84;5016083;28;46165;-49
2021/06/07 05:26:29;;;;;;;;;2.75;2.75;;;;;23.73;46.67;101957.50;5016143;28;45349;-51
2021/06/07 05:28:56;;;;;;;;;4.00;4.00;;;;;23.74;46.52;101960.09;5016146;28;45297;-53
2021/06/07 05:31:22;;;;;;;;;3.00;3.00;;;;;23.73;46.43;101958.38;5015978;28;45237;-50
2021/06/07 05:33:48;;;;;;;;;3.75;3.75;;;;;23.73;46.45;101963.00;5016126;28;45276;-51
2021/06/07 05:36:13;;;;;;;;;1.25;1.25;;;;;23.73;46.32;101969.31;5015845;28;45179;-52
2021/06/07 05:38:39;;;;;;;;;3.00;3.00;;;;;23.72;46.61;101970.34;5015958;28;45501;-53
2021/06/07 05:41:04;;;;;;;;;4.75;3.50;;;;;23.73;46.78;101972.06;5016054;28;45467;-53
2021/06/07 05:43:30;;;;;;;;;3.50;3.00;;;;;23.72;46.27;101967.59;5015685;28;45427;-53
2021/06/07 05:45:55;;;;;;;;;2.00;2.00;;;;;23.72;46.61;101967.59;5015868;28;45352;-50
2021/06/07 05:48:21;;;;;;;;;3.50;2.25;;;;;23.73;46.49;101969.31;5015921;28;45385;-55
2021/06/07 05:50:47;;;;;;;;;2.75;2.75;;;;;23.74;46.43;101973.78;5014680;28;45473;-52
2021/06/07 05:53:14;;;;;;;;;3.50;3.00;;;;;23.74;46.71;101972.94;5015755;28;45535;-48
2021/06/07 05:55:44;;;;;;;;;3.00;3.00;;;;;23.74;46.58;101979.28;5018490;28;45431;-54
2021/06/07 05:58:21;;;;;;;;;3.25;3.25;;;;;23.73;46.63;101973.97;5010993;28;45326;-48
2021/06/07 06:00:49;;;;;;;;;2.75;2.75;;;;;23.73;46.66;101972.06;5016664;28;45519;-54
2021/06/07 06:03:15;;;;;;;;;3.75;3.00;;;;;23.71;46.49;101979.59;5018953;28;45422;-54
2021/06/07 06:05:41;;;;;;;;;3.00;3.00;;;;;23.74;46.45;101975.69;5019349;28;45628;-51
2021/06/07 06:08:08;;;;;;;;;3.75;3.75;;;;;23.74;46.28;101979.28;5019030;28;45440;-52
2021/06/07 06:10:35;;;;;;;;;3.00;3.00;;;;;23.75;46.49;101972.78;5018998;28;46244;-52
2021/06/07 06:13:00;;;;;;;;;3.75;2.25;;;;;23.74;46.60;101973.78;5018770;28;46159;-51
2021/06/07 06:15:26;;;;;;;;;2.00;2.00;;;;;23.76;46.57;101976.38;5017795;28;45337;-52
2021/06/07 06:17:54;;;;;;;;;3.00;3.00;;;;;23.76;46.51;101981.84;5019025;28;45348;-47
2021/06/07 06:20:20;;;;;;;;;2.75;2.75;;;;;23.72;46.29;101975.84;5018804;28;45250;-50
2021/06/07 06:22:46;;;;;;;;;2.25;2.25;;;;;23.74;46.50;101981.19;5018883;28;45456;-50
2021/06/07 06:25:14;;;;;;;;;3.00;3.00;;;;;23.75;46.61;101981.00;5018731;28;45583;-50
2021/06/07 06:27:40;;;;;;;;;2.00;2.00;;;;;23.75;46.50;101981.00;5017404;28;45425;-52
2021/06/07 06:30:08;;;;;;;;;6.00;3.75;;;;;23.75;46.57;101983.75;5018884;28;45313;-52
2021/06/07 06:32:34;;;;;;;;;4.25;4.25;;;;;23.76;46.41;101984.59;5017425;28;45629;-51
2021/06/07 06:34:59;;;;;;;;;4.25;3.00;;;;;23.76;46.33;101985.47;5017370;28;45381;-52
2021/06/07 06:37:25;;;;;;;;;4.75;4.75;;;;;23.76;46.38;101988.22;5018137;28;45422;-48
2021/06/07 06:39:50;;;;;;;;;3.00;3.00;;;;;23.77;46.41;101978.09;5018110;28;45411;-52
2021/06/07 06:42:16;;;;;;;;;2.75;2.75;;;;;23.77;46.48;101978.97;5018689;28;45438;-51
2021/06/07 06:44:41;;;;;;;;;3.50;3.00;;;;;23.77;46.26;101980.84;5018562;28;45463;-53
2021/06/07 06:47:07;;;;;;;;;3.50;3.25;;;;;23.78;46.58;101985.31;5018699;28;45404;-54
2021/06/07 06:49:32;;;;;;;;;4.00;3.00;;;;;23.78;46.35;101985.31;5018575;28;45420;-49
2021/06/07 06:51:59;;;;;;;;;2.75;2.00;;;;;23.78;46.47;101983.44;5018228;28;45411;-51
2021/06/07 06:54:25;;;;;;;;;3.25;3.25;;;;;23.78;46.30;101980.69;5018216;28;45680;-49
2021/06/07 06:56:51;;;;;;;;;3.25;3.25;;;;;23.79;46.40;101976.06;5018550;28;45313;-51
2021/06/07 06:59:17;;;;;;;;;1.25;1.25;;;;;23.79;46.36;101976.06;5006127;28;45350;-46
2021/06/07 07:01:43;;;;;;;;;3.00;3.00;;;;;23.80;45.97;101975.94;5018210;28;46288;-51
2021/06/07 07:04:08;;;;;;;;;3.75;3.75;;;;;23.79;46.12;101971.47;5018327;28;45478;-52
2021/06/07 07:06:36;;;;;;;;;4.00;4.00;;;;;23.79;46.26;101974.19;5017517;28;45420;-50
2021/06/07 07:09:02;;;;;;;;;2.00;2.00;;;;;23.81;46.14;101974.03;5011339;28;45250;-48
2021/06/07 07:11:27;;;;;;;;;4.25;3.50;;;;;23.82;46.19;101977.66;4996886;28;45381;-51
2021/06/07 07:13:54;;;;;;;;;3.00;1.75;;;;;23.82;46.12;101983.97;4996815;28;45373;-45
2021/06/07 07:16:19;;;;;;;;;3.00;3.00;;;;;23.83;46.24;101982.09;4998454;28;45373;-52
2021/06/07 07:18:45;;;;;;;;;2.00;2.00;;;;;23.82;46.12;101978.50;4996815;28;45524;-49
2021/06/07 07:21:10;;;;;;;;;3.00;3.00;;;;;23.85;46.10;101988.28;4998148;28;45338;-51
2021/06/07 07:23:36;;;;;;;;;4.00;4.00;;;;;23.85;46.19;101983.66;4997913;28;45334;-49
2021/06/07 07:26:02;;;;;;;;;3.75;3.75;;;;;23.86;46.22;101985.41;4998166;28;45366;-47
2021/06/07 07:28:28;;;;;;;;;3.00;3.00;;;;;23.85;46.21;101983.66;5005142;28;45242;-50
2021/06/07 07:30:54;;;;;;;;;3.00;3.00;;;;;23.87;46.16;101980.75;5015506;28;45298;-51
2021/06/07 07:33:20;;;;;;;;;2.50;2.50;;;;;23.88;46.08;101987.97;5017523;28;45594;-53
2021/06/07 07:35:46;;;;;;;;;4.00;4.00;;;;;23.89;46.02;101987.81;5017755;28;45297;-50
2021/06/07 07:38:11;;;;;;;;;4.00;4.00;;;;;23.89;45.88;101978.72;5016216;28;45250;-53
2021/06/07 07:40:39;;;;;;;;;5.00;5.00;;;;;23.91;46.06;101984.91;5017364;28;45322;-47
2021/06/07 07:43:04;;;;;;;;;3.25;3.25;;;;;23.92;45.96;101978.41;5007095;28;45440;-51
2021/06/07 07:45:31;;;;;;;;;4.50;4.00;;;;;23.93;46.11;101980.16;5013368;28;45458;-51
2021/06/07 07:47:59;;;;;;;;;3.50;3.50;;;;;23.93;46.14;101980.16;5016091;28;45497;-47
2021/06/07 07:50:27;;;;;;;;;5.25;5.25;;;;;23.95;46.21;101983.59;5016885;28;45636;-50
2021/06/07 07:52:52;;;;;;;;;4.00;4.00;;;;;23.97;45.92;101980.72;5017253;28;45636;-50
2021/06/07 07:55:25;;;;;;;;;4.00;4.00;;;;;24.02;45.82;101984.69;5017620;28;45510;-50
2021/06/07 07:57:52;;;;;;;;;3.75;3.75;;;;;24.05;45.92;101981.66;5011772;28;45221;-46
2021/06/07 08:00:23;;;;;;;;;3.50;3.50;;;;;24.09;46.15;101980.31;5010736;28;45425;-47
2021/06/07 08:02:49;;;;;;;;;6.25;5.00;;;;;24.01;45.97;101957.44;5017247;28;45779;-47
2021/06/07 08:05:15;;;;;;;;;5.25;5.25;;;;;24.15;45.78;101978.81;5017178;28;45544;-49
2021/06/07 08:07:41;;;;;;;;;4.00;4.00;;;;;24.16;45.62;101976.91;5015741;28;45439;-51
2021/06/07 08:10:09;;;;;;;;;3.25;3.25;;;;;24.21;45.66;101971.81;5005312;28;45481;-48
2021/06/07 08:12:35;;;;;;;;;5.00;3.75;;;;;24.25;45.86;101981.47;5016214;28;45528;-55
2021/06/07 08:15:00;;;;;;;;;4.50;4.00;;;;;24.27;45.36;101973.91;5017276;28;45522;-52
2021/06/07 08:17:26;;;;;;;;;5.00;4.00;;;;;24.30;45.64;101976.34;5017169;28;45503;-51
2021/06/07 08:19:51;;;;;;;;;3.25;3.00;;;;;24.32;45.71;101971.56;5016644;28;46112;-51
2021/06/07 08:22:18;;;;;;;;;4.25;3.75;;;;;24.35;45.61;101967.63;5015553;28;45358;-52
2021/06/07 08:24:44;;;;;;;;;4.00;3.00;;;;;24.37;45.46;101963.72;5016655;28;45474;-52
2021/06/07 08:27:10;;;;;;;;;3.00;3.00;;;;;24.40;44.93;101962.50;5014426;28;45282;-51
2021/06/07 08:29:35;;;;;;;;;3.00;3.00;;;;;24.41;44.91;101969.72;5006485;28;45581;-49
2021/06/07 08:32:01;;;;;;;;;4.75;4.00;;;;;24.43;44.64;101969.56;4995816;28;45270;-52
2021/06/07 08:34:27;;;;;;;;;3.75;3.75;;;;;24.44;44.69;101971.28;4996603;28;45370;-49
2021/06/07 08:36:52;;;;;;;;;5.00;5.00;;;;;24.45;44.62;101970.25;4995086;28;45467;-53
2021/06/07 08:39:19;;;;;;;;;5.75;4.75;;;;;24.44;44.49;101965.78;4995993;28;46128;-50
2021/06/07 08:41:45;;;;;;;;;4.00;4.00;;;;;24.45;44.88;101973.88;5007282;28;45258;-53
2021/06/07 08:44:10;;;;;;;;;4.00;4.00;;;;;24.48;44.72;101973.53;5015974;28;45265;-50
2021/06/07 08:46:36;;;;;;;;;3.00;3.00;;;;;24.49;44.34;101963.44;5016351;28;45435;-53
2021/06/07 08:49:02;;;;;;;;;5.25;5.25;;;;;24.50;44.49;101965.16;5015525;28;45484;-51
2021/06/07 08:51:28;;;;;;;;;3.50;3.50;;;;;24.52;44.23;101963.09;5014992;28;45377;-53
2021/06/07 08:53:54;;;;;;;;;5.25;4.50;;;;;24.52;44.21;101963.09;5016144;28;45371;-54
2021/06/07 08:56:21;;;;;;;;;5.00;4.00;;;;;24.53;43.95;101970.31;5016009;28;45428;-53
2021/06/07 08:58:47;;;;;;;;;3.25;3.25;;;;;24.51;44.02;101962.22;5012061;28;45376;-51
2021/06/07 09:01:14;;;;;;;;;3.75;3.75;;;;;24.54;44.23;101963.78;5015703;28;45509;-51
2021/06/07 09:03:40;;;;;;;;;3.00;3.00;;;;;24.55;43.87;101965.50;5016219;28;45512;-49
2021/06/07 09:06:05;;;;;;;;;5.25;4.00;;;;;24.57;43.91;101960.72;5015569;28;45531;-53
2021/06/07 09:08:37;;;;;;;;;3.75;3.75;;;;;24.57;44.03;101955.22;5012763;28;45366;-54
2021/06/07 09:11:15;;;;;;;;;5.25;3.00;;;;;24.59;44.15;101960.56;4996050;28;45511;-54
2021/06/07 09:13:41;;;;;;;;;5.00;4.00;;;;;24.60;43.85;101967.78;4995392;28;45400;-52
2021/06/07 09:16:09;;;;;;;;;5.00;4.00;;;;;24.61;43.75;101961.28;5005684;28;45493;-49
2021/06/07 09:18:41;;;;;;;;;3.75;3.25;;;;;24.61;43.71;101962.13;5012185;28;45617;-57
2021/06/07 09:21:12;;;;;;;;;4.00;3.00;;;;;24.62;43.99;101961.09;5015310;28;45387;-54
2021/06/07 09:23:53;;;;;;;;;4.50;4.50;;;;;24.63;43.90;101965.56;5014963;28;45450;-54
2021/06/07 09:26:29;;;;;;;;;3.25;3.25;;;;;24.64;43.99;101961.81;4995717;28;45550;-51
2021/06/07 09:28:58;;;;;;;;;4.50;4.00;;;;;24.66;44.12;101956.13;4998873;28;45524;-52
2021/06/07 09:31:29;;;;;;;;;3.25;2.75;;;;;24.64;43.90;101959.06;5015132;28;45578;-54
2021/06/07 09:33:55;;;;;;;;;4.75;3.50;;;;;24.69;43.49;101962.19;5015458;28;45374;-53
2021/06/07 09:36:29;;;;;;;;;6.50;4.75;;;;;24.71;43.71;101959.28;4997560;28;45378;-53
2021/06/07 09:39:16;;;;;;;;;3.50;3.50;;;;;24.72;43.38;101966.50;5014480;28;46402;-49
2021/06/07 09:41:42;;;;;;;;;4.00;4.00;;;;;24.74;43.57;101964.47;5014357;28;45436;-53
2021/06/07 09:44:07;;;;;;;;;6.00;4.00;;;;;24.74;43.03;101964.47;5014353;28;45511;-52
2021/06/07 09:46:33;;;;;;;;;4.00;4.00;;;;;24.76;42.83;101967.88;5014085;28;46845;-48
2021/06/07 09:49:14;;;;;;;;;3.75;3.75;;;;;24.78;43.06;101967.72;5014468;28;46204;-48
2021/06/07 09:51:52;;;;;;;;;4.75;3.00;;;;;24.80;42.60;101965.69;5013227;28;45805;-50
2021/06/07 09:54:17;;;;;;;;;5.00;4.00;;;;;24.81;42.23;101970.16;5015022;28;45432;-48
2021/06/07 09:56:52;;;;;;;;;4.00;4.00;;;;;24.80;42.25;101966.53;4997006;28;45453;-51
2021/06/07 09:59:34;;;;;;;;;3.75;3.75;;;;;24.81;42.08;101976.50;5013469;28;46893;-49
2021/06/07 10:02:12;;;;;;;;;3.25;2.50;;;;;24.82;42.26;101959.00;5008996;28;45714;-52
2021/06/07 10:04:54;;;;;;;;;4.75;3.50;;;;;24.84;41.82;101958.81;5014673;28;45384;-49
2021/06/07 10:07:21;;;;;;;;;4.00;4.00;;;;;24.84;41.47;101959.69;5015109;28;45589;-49
2021/06/07 10:10:24;;;;;;;;;3.75;3.75;;;;;24.87;41.40;101964.00;5013837;28;45580;-49
2021/06/07 10:12:50;;;;;;;;;4.50;4.25;;;;;24.85;41.54;101952.31;5013297;28;45443;-51
2021/06/07 10:15:36;;;;;;;;;3.50;3.50;;;;;24.89;41.08;101959.19;5013282;28;45413;-48
2021/06/07 10:18:05;;;;;;;;;4.00;4.00;;;;;24.92;41.08;101955.25;5014147;28;45400;-53
2021/06/07 10:22:57;;;;;;;;;4.00;4.00;;;;;24.91;40.97;101957.16;5014512;28;45503;-50
2021/06/07 10:25:23;;;;;;;;;3.50;3.50;;;;;24.94;40.42;101956.81;5013580;28;45510;-53
2021/06/07 10:27:49;;;;;;;;;4.00;4.00;;;;;24.95;40.59;101955.81;5013473;28;45510;-51
2021/06/07 10:30:18;;;;;;;;;3.00;2.75;;;;;24.97;40.25;101950.97;5014732;28;45408;-52
2021/06/07 10:32:45;;;;;;;;;4.00;4.00;;;;;24.99;40.55;101962.66;5014416;28;45447;-51
2021/06/07 10:35:12;;;;;;;;;2.00;2.00;;;;;24.98;39.49;101955.44;5013587;28;45592;-54
2021/06/07 10:38:08;;;;;;;;;3.50;3.50;;;;;25.00;39.55;101953.41;5014451;28;45395;-52
2021/06/07 10:40:37;;;;;;;;;3.00;3.00;;;;;25.00;39.58;101945.16;5014381;28;45440;-50
2021/06/07 10:43:06;;;;;;;;;3.25;3.25;;;;;25.01;39.63;101951.53;5017656;28;45385;-52
2021/06/07 10:45:38;;;;;;;;;3.75;3.75;;;;;25.03;38.73;101946.72;5016992;28;45584;-50
2021/06/07 10:48:06;;;;;;;;;4.00;3.00;;;;;25.05;39.12;101952.03;5016157;28;45412;-55
2021/06/07 10:51:13;;;;;;;;;2.00;2.00;;;;;25.07;38.81;101941.75;5016374;28;45401;-56
2021/06/07 10:53:38;;;;;;;;;3.00;3.00;;;;;25.07;38.16;101945.34;4997440;28;45600;-50
2021/06/07 10:56:10;;;;;;;;;3.00;3.00;;;;;25.09;38.67;101954.28;5006379;28;45604;-47
2021/06/07 10:59:01;;;;;;;;;2.00;2.00;;;;;25.12;38.59;101942.09;5009665;28;45277;-50
2021/06/07 11:01:50;;;;;;;;;3.00;3.00;;;;;25.11;38.88;101940.41;5017586;28;46234;-52
2021/06/07 11:04:38;;;;;;;;;3.75;3.75;;;;;25.14;38.66;101938.16;5016578;28;45750;-51
2021/06/07 11:07:09;;;;;;;;;3.50;3.50;;;;;25.22;38.26;101955.69;4999555;28;45503;-47
2021/06/07 11:09:34;;;;;;;;;3.00;3.00;;;;;25.22;38.77;101947.44;5002703;28;45911;-49
2021/06/07 11:12:03;;;;;;;;;4.00;3.50;;;;;25.26;38.25;101949.69;5007665;28;45505;-51
2021/06/07 11:14:31;;;;;;;;;4.00;3.00;;;;;25.28;38.12;101947.63;5004933;28;45434;-52
2021/06/07 11:17:25;;;;;;;;;3.25;3.25;;;;;25.32;37.62;101942.69;5017358;28;45573;-49
2021/06/07 11:19:53;;;;;;;;;4.75;3.50;;;;;25.36;37.10;101937.69;5017747;28;45599;-52
2021/06/07 11:22:19;;;;;;;;;4.00;4.00;;;;;25.38;37.41;101927.41;5015958;28;46332;-49
2021/06/07 11:24:48;;;;;;;;;3.75;3.75;;;;;25.41;36.92;101935.28;5015659;28;45423;-49
2021/06/07 11:27:36;;;;;;;;;6.50;4.50;;;;;25.45;36.75;101936.72;5017579;28;45360;-49
2021/06/07 11:30:10;;;;;;;;;3.75;3.75;;;;;25.45;37.07;101937.59;5017543;28;45237;-55